createdAt,value
2022-08-17T00:02:26.734Z,47.81
2022-08-17T00:04:51.540Z,47.87
2022-08-17T00:07:17.974Z,47.84
2022-08-17T00:09:44.407Z,47.87
2022-08-17T00:12:42.807Z,47.87
2022-08-17T00:14:37.229Z,47.86
2022-08-17T00:17:03.655Z,47.92
2022-08-17T00:19:30.052Z,47.96
2022-08-17T00:22:34.560Z,47.86
2022-08-17T00:24:22.881Z,47.88
2022-08-17T00:26:49.429Z,47.98
2022-08-17T00:29:19.682Z,47.96
2022-08-17T00:31:42.235Z,47.93
2022-08-17T00:34:08.687Z,47.94
2022-08-17T00:36:35.177Z,47.94
2022-08-17T00:39:01.589Z,47.94
2022-08-17T00:41:27.996Z,47.91
2022-08-17T00:43:54.429Z,47.94
2022-08-17T00:46:20.817Z,47.93
2022-08-17T00:48:47.256Z,47.91
2022-08-17T00:51:13.675Z,47.94
2022-08-17T00:53:40.084Z,47.90
2022-08-17T00:56:06.543Z,47.94
2022-08-17T00:58:36.661Z,47.98
2022-08-17T01:00:59.433Z,47.90
2022-08-17T01:03:25.770Z,48.05
2022-08-17T01:05:52.170Z,47.99
2022-08-17T01:08:18.580Z,47.99
2022-08-17T01:10:58.415Z,47.91
2022-08-17T01:13:11.453Z,48.00
2022-08-17T01:15:37.890Z,48.00
2022-08-17T01:18:04.295Z,48.00
2022-08-17T01:20:30.713Z,48.00
2022-08-17T01:22:57.129Z,48.01
2022-08-17T01:25:23.522Z,48.14
2022-08-17T01:27:49.997Z,48.10
2022-08-17T01:30:58.596Z,48.05
2022-08-17T01:32:42.812Z,48.09
2022-08-17T01:35:09.251Z,48.09
2022-08-17T01:37:35.659Z,48.08
2022-08-17T01:40:02.179Z,48.07
2022-08-17T01:42:28.531Z,48.10
2022-08-17T01:44:54.939Z,48.10
2022-08-17T01:47:21.372Z,48.03
2022-08-17T01:49:47.778Z,48.05
2022-08-17T01:52:14.189Z,48.07
2022-08-17T01:54:40.617Z,48.07
2022-08-17T01:57:07.028Z,48.06
2022-08-17T01:59:33.447Z,48.03
2022-08-17T02:01:59.853Z,48.22
2022-08-17T02:04:26.320Z,48.11
2022-08-17T02:06:54.573Z,48.12
2022-08-17T02:09:19.190Z,47.98
2022-08-17T02:11:46.270Z,47.85
2022-08-17T02:14:12.022Z,47.95
2022-08-17T02:16:38.444Z,47.98
2022-08-17T02:19:05.069Z,48.04
2022-08-17T02:21:31.491Z,48.05
2022-08-17T02:23:57.895Z,48.01
2022-08-17T02:26:25.955Z,47.94
2022-08-17T02:28:50.710Z,47.85
2022-08-17T02:31:17.119Z,47.77
2022-08-17T02:33:43.831Z,47.82
2022-08-17T02:36:09.952Z,47.77
2022-08-17T02:38:37.446Z,47.64
2022-08-17T02:41:04.052Z,47.56
2022-08-17T02:43:30.429Z,47.50
2022-08-17T02:45:56.818Z,47.46
2022-08-17T02:48:30.437Z,47.53
2022-08-17T02:50:49.620Z,47.52
2022-08-17T02:53:16.004Z,47.51
2022-08-17T02:55:42.401Z,47.47
2022-08-17T02:58:08.775Z,47.53
2022-08-17T03:00:35.171Z,47.55
2022-08-17T03:03:01.577Z,47.48
2022-08-17T03:05:27.957Z,47.47
2022-08-17T03:07:54.368Z,47.49
2022-08-17T03:10:20.761Z,47.49
2022-08-17T03:12:47.303Z,47.53
2022-08-17T03:15:13.627Z,47.51
2022-08-17T03:17:40.022Z,47.50
2022-08-17T03:20:06.412Z,47.52
2022-08-17T03:22:36.165Z,47.46
2022-08-17T03:25:00.382Z,47.46
2022-08-17T03:27:25.574Z,47.39
2022-08-17T03:29:51.984Z,47.37
2022-08-17T03:32:18.360Z,47.45
2022-08-17T03:34:44.750Z,47.37
2022-08-17T03:37:11.131Z,47.36
2022-08-17T03:39:37.567Z,47.34
2022-08-17T03:42:03.956Z,47.28
2022-08-17T03:44:30.337Z,47.27
2022-08-17T03:46:56.725Z,47.21
2022-08-17T03:49:23.121Z,47.20
2022-08-17T03:51:49.566Z,47.17
2022-08-17T03:54:15.919Z,47.17
2022-08-17T03:56:42.306Z,47.17
2022-08-17T03:59:08.693Z,47.13
2022-08-17T04:01:35.219Z,47.06
2022-08-17T04:04:01.495Z,47.07
2022-08-17T04:06:27.905Z,47.05
2022-08-17T04:08:54.318Z,47.06
2022-08-17T04:11:21.656Z,47.17
2022-08-17T04:13:47.114Z,47.45
2022-08-17T04:16:13.502Z,47.79
2022-08-17T04:18:39.892Z,47.87
2022-08-17T04:21:06.312Z,51.37
2022-08-17T04:23:32.662Z,48.81
2022-08-17T04:25:59.041Z,48.77
2022-08-17T04:28:25.423Z,48.72
2022-08-17T04:30:51.804Z,48.88
2022-08-17T04:33:18.195Z,48.77
2022-08-17T04:35:44.573Z,48.63
2022-08-17T04:38:10.993Z,48.57
2022-08-17T04:40:37.368Z,48.49
2022-08-17T04:43:03.781Z,48.48
2022-08-17T04:45:32.273Z,48.38
2022-08-17T04:47:56.592Z,48.33
2022-08-17T04:50:22.995Z,48.26
2022-08-17T04:52:49.387Z,48.27
2022-08-17T04:55:15.762Z,48.19
2022-08-17T04:57:45.069Z,48.18
2022-08-17T05:00:09.529Z,48.10
2022-08-17T05:02:34.918Z,48.22
2022-08-17T05:05:01.294Z,48.26
2022-08-17T05:07:31.399Z,48.24
2022-08-17T05:09:54.259Z,48.22
2022-08-17T05:12:20.687Z,48.28
2022-08-17T05:14:47.120Z,48.21
2022-08-17T05:17:13.511Z,48.26
2022-08-17T05:19:39.886Z,48.33
2022-08-17T05:22:06.280Z,48.37
2022-08-17T05:24:38.617Z,48.44
2022-08-17T05:27:06.033Z,48.48
2022-08-17T05:29:35.108Z,48.58
2022-08-17T05:31:51.827Z,48.57
2022-08-17T05:34:18.210Z,48.62
2022-08-17T05:36:44.682Z,48.65
2022-08-17T05:39:15.784Z,48.64
2022-08-17T05:41:37.360Z,48.65
2022-08-17T05:44:05.573Z,48.77
2022-08-17T05:46:30.175Z,48.70
2022-08-17T05:48:56.550Z,48.93
2022-08-17T05:51:22.970Z,48.89
2022-08-17T05:53:49.573Z,48.97
2022-08-17T05:56:29.665Z,49.03
2022-08-17T05:58:42.398Z,48.98
2022-08-17T06:01:08.829Z,49.08
2022-08-17T06:03:35.172Z,49.18
2022-08-17T06:06:01.599Z,49.19
2022-08-17T06:08:28.061Z,49.29
2022-08-17T06:10:54.478Z,49.35
2022-08-17T06:13:20.888Z,49.40
2022-08-17T06:15:47.288Z,49.51
2022-08-17T06:18:17.270Z,49.47
2022-08-17T06:20:40.062Z,49.60
2022-08-17T06:23:06.439Z,49.62
2022-08-17T06:25:32.839Z,49.69
2022-08-17T06:27:59.226Z,49.82
2022-08-17T06:30:25.621Z,49.93
2022-08-17T06:32:52.250Z,50.08
2022-08-17T06:35:18.430Z,50.14
2022-08-17T06:37:44.868Z,50.25
2022-08-17T06:40:11.333Z,50.40
2022-08-17T06:42:59.889Z,50.50
2022-08-17T06:45:04.067Z,50.49
2022-08-17T06:47:30.572Z,50.76
2022-08-17T06:49:56.967Z,50.84
2022-08-17T06:52:46.047Z,50.74
2022-08-17T06:54:49.837Z,50.67
2022-08-17T06:57:16.223Z,50.73
2022-08-17T06:59:55.515Z,50.69
2022-08-17T07:02:09.001Z,50.68
2022-08-17T07:04:35.423Z,50.63
2022-08-17T07:07:01.801Z,50.71
2022-08-17T07:09:28.226Z,50.66
2022-08-17T07:11:54.596Z,50.70
2022-08-17T07:14:20.988Z,50.71
2022-08-17T07:16:47.421Z,50.66
2022-08-17T07:19:13.764Z,50.76
2022-08-17T07:21:40.187Z,50.65
2022-08-17T07:24:06.576Z,50.64
2022-08-17T07:26:32.971Z,50.61
2022-08-17T07:28:59.385Z,50.57
2022-08-17T07:31:25.777Z,50.58
2022-08-17T07:33:52.251Z,50.57
2022-08-17T07:36:18.642Z,50.63
2022-08-17T07:38:45.040Z,50.74
2022-08-17T07:41:11.429Z,50.72
2022-08-17T07:43:37.932Z,50.84
2022-08-17T07:46:04.306Z,50.92
2022-08-17T07:48:30.698Z,50.99
2022-08-17T07:50:57.098Z,51.03
2022-08-17T07:53:23.476Z,51.22
2022-08-17T07:55:49.899Z,51.25
2022-08-17T07:58:16.318Z,51.33
2022-08-17T08:00:42.711Z,51.42
2022-08-17T08:03:09.118Z,51.34
2022-08-17T08:05:50.083Z,51.37
2022-08-17T08:08:01.948Z,51.51
2022-08-17T08:10:28.331Z,51.48
2022-08-17T08:12:54.753Z,51.29
2022-08-17T08:15:21.252Z,51.27
2022-08-17T08:17:47.682Z,51.24
2022-08-17T08:20:50.852Z,51.27
2022-08-17T08:22:42.593Z,51.32
2022-08-17T08:25:08.990Z,51.29
2022-08-17T08:27:35.393Z,51.34
2022-08-17T08:30:01.771Z,51.35
2022-08-17T08:32:28.164Z,51.36
2022-08-17T08:35:01.716Z,51.35
2022-08-17T08:37:32.617Z,51.44
2022-08-17T08:39:47.396Z,51.40
2022-08-17T08:42:13.707Z,51.35
2022-08-17T08:44:59.958Z,51.21
2022-08-17T08:47:06.492Z,51.20
2022-08-17T08:50:01.175Z,51.12
2022-08-17T08:51:59.256Z,51.03
2022-08-17T08:54:27.026Z,51.20
2022-08-17T08:57:21.547Z,51.20
2022-08-17T08:59:18.399Z,51.03
2022-08-17T09:01:44.908Z,51.13
2022-08-17T09:04:24.068Z,51.07
2022-08-17T09:06:39.779Z,51.13
2022-08-17T09:09:04.032Z,51.07
2022-08-17T09:11:30.424Z,51.27
2022-08-17T09:13:56.874Z,51.29
2022-08-17T09:16:23.261Z,51.18
2022-08-17T09:19:02.720Z,51.27
2022-08-17T09:21:18.170Z,51.34
2022-08-17T09:23:42.534Z,51.36
2022-08-17T09:26:09.058Z,51.34
2022-08-17T09:28:35.450Z,51.42
2022-08-17T09:31:01.838Z,51.45
2022-08-17T09:33:28.221Z,51.44
2022-08-17T09:35:54.607Z,51.16
2022-08-17T09:38:21.108Z,51.38
2022-08-17T09:40:47.488Z,51.33
2022-08-17T09:43:13.938Z,51.22
2022-08-17T09:45:40.330Z,51.03
2022-08-17T09:48:07.923Z,51.20
2022-08-17T09:51:03.894Z,50.96
2022-08-17T09:52:59.512Z,51.02
2022-08-17T09:55:25.903Z,50.95
2022-08-17T09:57:52.391Z,51.00
2022-08-17T10:00:18.725Z,51.00
2022-08-17T10:02:45.112Z,50.91
2022-08-17T10:05:11.567Z,50.78
2022-08-17T10:07:37.957Z,50.71
2022-08-17T10:10:04.361Z,50.74
2022-08-17T10:12:30.751Z,50.75
2022-08-17T10:14:57.132Z,50.75
2022-08-17T10:17:23.633Z,50.77
2022-08-17T10:19:50.021Z,50.79
2022-08-17T10:22:35.390Z,50.69
2022-08-17T10:25:01.861Z,50.74
2022-08-17T10:27:11.424Z,50.69
2022-08-17T10:29:48.519Z,50.83
2022-08-17T10:32:04.230Z,50.77
2022-08-17T10:34:30.590Z,50.90
2022-08-17T10:36:56.996Z,50.90
2022-08-17T10:39:23.388Z,51.05
2022-08-17T10:41:49.784Z,50.91
2022-08-17T10:44:37.094Z,50.89
2022-08-17T10:46:42.574Z,50.87
2022-08-17T10:49:08.970Z,50.88
2022-08-17T10:51:35.360Z,50.77
2022-08-17T10:54:01.763Z,50.71
2022-08-17T10:56:28.208Z,50.61
2022-08-17T10:58:54.600Z,50.57
2022-08-17T11:01:21.022Z,50.59
2022-08-17T11:03:47.384Z,50.62
2022-08-17T11:06:13.812Z,50.62
2022-08-17T11:08:40.181Z,50.48
2022-08-17T11:11:06.575Z,50.45
2022-08-17T11:13:32.974Z,50.36
2022-08-17T11:16:02.366Z,50.18
2022-08-17T11:18:25.862Z,50.26
2022-08-17T11:20:52.332Z,50.19
2022-08-17T11:23:18.728Z,50.17
2022-08-17T11:25:45.201Z,50.20
2022-08-17T11:28:11.607Z,50.08
2022-08-17T11:30:38.004Z,49.95
2022-08-17T11:33:04.407Z,49.99
2022-08-17T11:35:30.865Z,50.00
2022-08-17T11:37:57.213Z,49.89
2022-08-17T11:40:23.620Z,49.81
2022-08-17T11:42:50.142Z,49.60
2022-08-17T11:45:19.505Z,49.54
2022-08-17T11:47:42.814Z,49.62
2022-08-17T11:50:09.307Z,49.68
2022-08-17T11:52:35.637Z,49.82
2022-08-17T11:55:17.995Z,49.88
2022-08-17T11:57:28.498Z,50.04
2022-08-17T11:59:54.893Z,49.99
2022-08-17T12:02:21.394Z,50.14
2022-08-17T12:04:48.023Z,50.13
2022-08-17T12:07:14.366Z,50.29
2022-08-17T12:09:40.899Z,50.24
2022-08-17T12:12:12.682Z,50.29
2022-08-17T12:15:05.842Z,50.24
2022-08-17T12:17:00.079Z,50.25
2022-08-17T12:19:26.468Z,50.21
2022-08-17T12:21:52.871Z,50.15
2022-08-17T12:24:19.404Z,50.14
2022-08-17T12:26:45.800Z,50.12
2022-08-17T12:29:39.036Z,50.09
2022-08-17T12:31:38.600Z,50.00
2022-08-17T12:34:05.005Z,50.21
2022-08-17T12:36:31.381Z,50.15
2022-08-17T12:38:57.790Z,50.04
2022-08-17T12:41:24.199Z,50.14
2022-08-17T12:43:50.608Z,50.15
2022-08-17T12:46:16.984Z,50.19
2022-08-17T12:48:58.667Z,50.47
2022-08-17T12:51:09.852Z,50.27
2022-08-17T12:53:36.241Z,50.19
2022-08-17T12:56:02.622Z,50.47
2022-08-17T12:58:29.051Z,50.63
2022-08-17T13:00:55.448Z,50.63
2022-08-17T13:03:21.827Z,50.67
2022-08-17T13:05:48.214Z,50.59
2022-08-17T13:08:14.612Z,50.61
2022-08-17T13:10:40.996Z,50.58
2022-08-17T13:13:07.452Z,50.63
2022-08-17T13:15:33.851Z,50.48
2022-08-17T13:18:00.240Z,50.57
2022-08-17T13:20:26.653Z,50.47
2022-08-17T13:22:53.042Z,50.53
2022-08-17T13:25:19.518Z,50.30
2022-08-17T13:27:45.946Z,50.42
2022-08-17T13:30:12.300Z,50.43
2022-08-17T13:32:39.907Z,50.30
2022-08-17T13:35:15.209Z,50.40
2022-08-17T13:37:31.491Z,50.23
2022-08-17T13:39:57.934Z,50.18
2022-08-17T13:42:24.263Z,50.20
2022-08-17T13:44:50.679Z,50.27
2022-08-17T13:47:17.040Z,50.37
2022-08-17T13:49:48.793Z,50.33
2022-08-17T13:52:09.945Z,50.42
2022-08-17T13:54:36.329Z,50.45
2022-08-17T13:57:02.722Z,50.43
2022-08-17T13:59:53.642Z,50.39
2022-08-17T14:01:55.667Z,50.33
2022-08-17T14:04:22.013Z,50.43
2022-08-17T14:06:53.416Z,50.45
2022-08-17T14:09:14.925Z,50.42
2022-08-17T14:11:41.307Z,50.39
2022-08-17T14:14:07.695Z,50.36
2022-08-17T14:16:34.204Z,50.47
2022-08-17T14:19:00.577Z,50.30
2022-08-17T14:21:28.615Z,50.52
2022-08-17T14:23:54.932Z,50.45
2022-08-17T14:26:19.788Z,50.46
2022-08-17T14:28:56.324Z,50.54
2022-08-17T14:31:12.588Z,50.68
2022-08-17T14:33:38.965Z,50.58
2022-08-17T14:36:05.369Z,50.55
2022-08-17T14:38:31.754Z,50.54
2022-08-17T14:40:58.142Z,50.57
2022-08-17T14:43:24.527Z,50.55
2022-08-17T14:45:50.915Z,50.51
2022-08-17T14:48:17.300Z,50.49
2022-08-17T14:50:43.763Z,50.46
2022-08-17T14:53:10.484Z,50.54
2022-08-17T14:55:36.892Z,50.51
2022-08-17T14:58:03.266Z,50.48
2022-08-17T15:00:29.808Z,50.42
2022-08-17T15:02:56.182Z,50.36
2022-08-17T15:05:22.568Z,50.37
2022-08-17T15:07:48.976Z,50.36
2022-08-17T15:10:15.354Z,50.24
2022-08-17T15:12:41.762Z,50.13
2022-08-17T15:15:08.170Z,50.04
2022-08-17T15:17:45.277Z,49.95
2022-08-17T15:20:00.935Z,49.94
2022-08-17T15:22:29.246Z,50.01
2022-08-17T15:24:53.790Z,50.07
2022-08-17T15:27:31.510Z,49.90
2022-08-17T15:29:46.570Z,49.90
2022-08-17T15:32:12.977Z,49.83
2022-08-17T15:34:39.366Z,49.89
2022-08-17T15:37:05.752Z,49.92
2022-08-17T15:39:32.189Z,49.92
2022-08-17T15:41:58.932Z,49.97
2022-08-17T15:44:32.399Z,49.96
2022-08-17T15:46:51.326Z,50.01
2022-08-17T15:49:17.715Z,49.99
2022-08-17T15:51:44.107Z,49.95
2022-08-17T15:54:18.828Z,49.93
2022-08-17T15:56:36.956Z,49.96
2022-08-17T15:59:03.346Z,50.08
2022-08-17T16:02:25.248Z,49.98
2022-08-17T16:04:03.954Z,50.00
2022-08-17T16:06:22.498Z,49.98
2022-08-17T16:08:48.947Z,50.09
2022-08-17T16:11:15.463Z,50.10
2022-08-17T16:13:41.852Z,50.06
2022-08-17T16:16:08.243Z,50.09
2022-08-17T16:18:34.622Z,49.89
2022-08-17T16:21:01.009Z,49.77
2022-08-17T16:23:27.391Z,49.71
2022-08-17T16:25:54.529Z,49.63
2022-08-17T16:28:20.156Z,49.59
2022-08-17T16:30:46.543Z,49.86
2022-08-17T16:33:12.948Z,49.99
2022-08-17T16:35:39.370Z,49.99
2022-08-17T16:38:07.219Z,50.01
2022-08-17T16:40:35.773Z,50.02
2022-08-17T16:42:58.609Z,49.99
2022-08-17T16:45:25.002Z,49.95
2022-08-17T16:47:52.448Z,49.95
2022-08-17T16:50:17.793Z,49.87
2022-08-17T16:52:44.268Z,49.89
2022-08-17T16:55:10.605Z,49.77
2022-08-17T16:57:36.994Z,49.79
2022-08-17T17:00:03.371Z,49.76
2022-08-17T17:02:29.768Z,49.62
2022-08-17T17:04:56.264Z,49.51
2022-08-17T17:07:22.649Z,49.44
2022-08-17T17:09:49.032Z,49.34
2022-08-17T17:12:15.424Z,49.29
2022-08-17T17:14:41.815Z,49.23
2022-08-17T17:17:08.197Z,49.13
2022-08-17T17:19:35.780Z,49.07
2022-08-17T17:22:00.965Z,48.92
2022-08-17T17:24:28.868Z,48.81
2022-08-17T17:26:54.306Z,48.76
2022-08-17T17:29:20.689Z,48.61
2022-08-17T17:31:47.078Z,48.52
2022-08-17T17:34:13.570Z,48.37
2022-08-17T17:36:39.969Z,48.33
2022-08-17T17:39:06.360Z,48.29
2022-08-17T17:41:32.763Z,48.23
2022-08-17T17:44:01.871Z,48.17
2022-08-17T17:46:28.713Z,48.02
2022-08-17T17:48:51.924Z,47.97
2022-08-17T17:52:06.806Z,47.89
2022-08-17T17:53:44.710Z,47.77
2022-08-17T17:56:43.125Z,47.73
2022-08-17T17:58:37.591Z,47.69
2022-08-17T18:01:03.988Z,47.56
2022-08-17T18:03:30.401Z,47.49
2022-08-17T18:05:56.787Z,47.40
2022-08-17T18:08:31.987Z,47.34
2022-08-17T18:10:49.663Z,47.28
2022-08-17T18:13:16.054Z,47.29
2022-08-17T18:15:42.433Z,47.20
2022-08-17T18:18:08.822Z,47.16
2022-08-17T18:20:43.489Z,47.16
2022-08-17T18:23:01.644Z,47.12
2022-08-17T18:25:28.025Z,47.14
2022-08-17T18:27:54.442Z,47.11
2022-08-17T18:30:23.375Z,47.08
2022-08-17T18:32:49.762Z,47.11
2022-08-17T18:35:16.154Z,47.07
2022-08-17T18:37:42.574Z,47.04
2022-08-17T18:40:09.026Z,47.04
2022-08-17T18:42:35.379Z,47.05
2022-08-17T18:45:01.772Z,47.04
2022-08-17T18:47:28.155Z,46.99
2022-08-17T18:49:54.539Z,46.99
2022-08-17T18:52:20.924Z,47.00
2022-08-17T18:54:47.305Z,46.98
2022-08-17T18:57:13.700Z,46.99
2022-08-17T18:59:40.164Z,46.98
2022-08-17T19:02:13.719Z,47.01
2022-08-17T19:04:34.108Z,46.98
2022-08-17T19:06:59.466Z,46.97
2022-08-17T19:09:25.849Z,46.97
2022-08-17T19:11:52.241Z,46.96
2022-08-17T19:14:18.631Z,46.94
2022-08-17T19:16:45.102Z,46.95
2022-08-17T19:19:11.509Z,46.98
2022-08-17T19:21:37.895Z,46.94
2022-08-17T19:24:04.282Z,46.93
2022-08-17T19:26:50.531Z,46.95
2022-08-17T19:28:57.056Z,46.93
2022-08-17T19:31:23.530Z,46.91
2022-08-17T19:33:49.925Z,46.93
2022-08-17T19:36:16.315Z,46.95
2022-08-17T19:38:42.700Z,46.98
2022-08-17T19:41:09.110Z,46.95
2022-08-17T19:43:35.486Z,46.94
2022-08-17T19:46:01.928Z,46.94
2022-08-17T19:48:28.309Z,46.92
2022-08-17T19:50:54.725Z,46.92
2022-08-17T19:53:21.113Z,46.93
2022-08-17T19:55:47.494Z,46.93
2022-08-17T19:58:18.076Z,46.93
2022-08-17T20:00:40.284Z,46.91
2022-08-17T20:03:06.696Z,46.91
2022-08-17T20:05:48.738Z,46.96
2022-08-17T20:07:59.442Z,46.99
2022-08-17T20:10:25.823Z,46.98
2022-08-17T20:12:52.201Z,47.04
2022-08-17T20:15:18.597Z,47.02
2022-08-17T20:17:45.055Z,47.03
2022-08-17T20:20:19.991Z,47.05
2022-08-17T20:22:51.972Z,47.03
2022-08-17T20:25:04.209Z,47.04
2022-08-17T20:27:31.683Z,47.03
2022-08-17T20:29:57.051Z,47.09
2022-08-17T20:32:23.515Z,47.13
2022-08-17T20:34:49.912Z,47.11
2022-08-17T20:37:16.315Z,47.11
2022-08-17T20:39:42.843Z,47.17
2022-08-17T20:42:09.207Z,47.16
2022-08-17T20:44:35.605Z,47.21
2022-08-17T20:47:01.988Z,47.22
2022-08-17T20:49:28.382Z,47.22
2022-08-17T20:52:01.509Z,47.21
2022-08-17T20:54:21.169Z,47.21
2022-08-17T20:56:47.546Z,47.22
2022-08-17T20:59:13.934Z,47.16
2022-08-17T21:01:40.419Z,47.19
2022-08-17T21:04:06.742Z,47.16
2022-08-17T21:06:33.121Z,47.21
2022-08-17T21:08:59.513Z,47.23
2022-08-17T21:11:57.146Z,47.34
2022-08-17T21:13:52.289Z,47.25
2022-08-17T21:16:18.670Z,47.23
2022-08-17T21:18:45.091Z,47.21
2022-08-17T21:21:16.880Z,47.25
2022-08-17T21:23:37.952Z,47.23
2022-08-17T21:26:04.429Z,47.23
2022-08-17T21:28:34.135Z,47.18
2022-08-17T21:30:57.233Z,47.18
2022-08-17T21:33:23.739Z,47.16
2022-08-17T21:35:50.117Z,47.15
2022-08-17T21:38:16.533Z,47.19
2022-08-17T21:40:42.909Z,47.27
2022-08-17T21:43:09.361Z,47.24
2022-08-17T21:45:35.754Z,47.18
2022-08-17T21:48:02.132Z,47.19
2022-08-17T21:50:28.592Z,47.09
2022-08-17T21:52:54.975Z,47.20
2022-08-17T21:55:21.367Z,47.14
2022-08-17T21:57:53.250Z,47.22
2022-08-17T22:00:14.258Z,47.16
2022-08-17T22:02:40.653Z,47.16
2022-08-17T22:05:07.041Z,47.20
2022-08-17T22:07:33.455Z,47.29
2022-08-17T22:09:59.839Z,47.23
2022-08-17T22:12:26.228Z,47.26
2022-08-17T22:14:54.109Z,47.25
2022-08-17T22:17:19.018Z,47.20
2022-08-17T22:19:45.401Z,47.25
2022-08-17T22:22:11.785Z,47.23
2022-08-17T22:24:38.171Z,47.28
2022-08-17T22:27:04.555Z,47.39
2022-08-17T22:29:30.982Z,47.34
2022-08-17T22:31:57.370Z,47.31
2022-08-17T22:34:23.750Z,47.26
2022-08-17T22:36:50.137Z,47.32
2022-08-17T22:39:16.520Z,47.31
2022-08-17T22:41:42.909Z,47.30
2022-08-17T22:44:09.285Z,47.35
2022-08-17T22:46:35.673Z,47.30
2022-08-17T22:49:02.058Z,47.35
2022-08-17T22:51:28.438Z,47.38
2022-08-17T22:53:54.814Z,47.41
2022-08-17T22:56:21.206Z,47.52
2022-08-17T22:58:58.988Z,47.51
2022-08-17T23:01:13.977Z,47.42
2022-08-17T23:03:40.358Z,47.58
2022-08-17T23:06:06.883Z,47.55
2022-08-17T23:08:33.253Z,47.48
2022-08-17T23:10:59.635Z,47.59
2022-08-17T23:13:26.043Z,47.42
2022-08-17T23:15:52.421Z,47.45
2022-08-17T23:18:18.807Z,47.48
2022-08-17T23:20:45.194Z,47.48
2022-08-17T23:23:11.589Z,47.65
2022-08-17T23:25:37.975Z,47.49
2022-08-17T23:28:04.360Z,47.50
2022-08-17T23:30:30.746Z,47.46
2022-08-17T23:32:57.130Z,47.57
2022-08-17T23:35:39.737Z,47.56
2022-08-17T23:37:50.091Z,47.50
2022-08-17T23:40:16.334Z,47.52
2022-08-17T23:42:46.453Z,47.40
2022-08-17T23:45:09.078Z,47.37
2022-08-17T23:47:35.458Z,47.36
2022-08-17T23:50:01.993Z,47.46
2022-08-17T23:52:28.249Z,47.35
2022-08-17T23:54:56.267Z,47.38
2022-08-17T23:57:33.769Z,47.48
2022-08-17T23:59:47.503Z,47.37
